Accueil
METAR-TAF:

METAR-TAF

Aéroports :

Aéroport de Lahr

Lahr, Allemagne

latitude: 48-22-09N, longitude: 007-49-40E, altitude: 156 m

Observation

Le bulletin a été fait il y a 10 heures et 30 minutes, à 16:20 UTC
Vent 6 kt de sud/sud-est, variant entre est/sud-est et sud
Température 19°C
Humidité 83%
Pression 1012 hPa
Visibilité 10 km ou plus
Quelques nuages à une hauteur de 2500 ft
Nuages épars à une hauteur de 8400 ft

METAR: EDTL 011620Z 16006KT 120V190 9999 FEW025 SCT084 19/16 Q1012

Heure: 04:50 (02:50 UTC)

Prévision

Le bulletin a été fait il y a 9 heures et 50 minutes, à 17:00 UTC
Prévision valable du 01 à 18 UTC au 01 à 24 UTC
Vent 6 kt de sud-ouest
Visibilité 10 km ou plus
Nuages épars à une hauteur de 3000 ft
Temporairement
du 01 à 18 UTC au 01 à 20 UTC
Nuages fragmentés à une hauteur de 2000 ft, Cumulonimbus.
averses de pluie

TAF: EDTL 011700Z 0118/0124 22006KT 9999 SCT030 TEMPO 0118/0120 SHRA BKN020CB

Observations et prévisions météorologiques de plus de 4000 aéroports (messages METAR et TAF).

Les stations disponibles sont représentées par des disques jaunes et rouges sur la carte.

Passer la souris dessus pour voir le nom de la station.

Cliquer dessus pour voir les observations et prévisions météorologiques.

Pour changer de carte: cliquez sur les boutons verts avec une croix noire pour zoomer, sur le bouton vert avec un tiret pour effectuer un zoom arrière, ou sur les flèches vertes pour les cartes adjacentes.


METAR-TAF: